sensor_id;sensor_type;location;lat;lon;timestamp;temperature;humidity
59041;DHT22;44825;53.200;6.448;2022-08-14T00:00:15;22.70;90.90
59041;DHT22;44825;53.200;6.448;2022-08-14T00:02:43;22.70;90.70
59041;DHT22;44825;53.200;6.448;2022-08-14T00:05:12;22.70;90.70
59041;DHT22;44825;53.200;6.448;2022-08-14T00:07:40;22.70;90.60
59041;DHT22;44825;53.200;6.448;2022-08-14T00:10:11;22.70;90.50
59041;DHT22;44825;53.200;6.448;2022-08-14T00:12:42;22.70;90.50
59041;DHT22;44825;53.200;6.448;2022-08-14T00:15:14;22.70;90.40
59041;DHT22;44825;53.200;6.448;2022-08-14T00:17:42;22.70;90.40
59041;DHT22;44825;53.200;6.448;2022-08-14T00:20:10;22.60;90.40
59041;DHT22;44825;53.200;6.448;2022-08-14T00:22:38;22.70;90.50
59041;DHT22;44825;53.200;6.448;2022-08-14T00:25:07;22.60;90.50
59041;DHT22;44825;53.200;6.448;2022-08-14T00:27:35;22.60;90.70
59041;DHT22;44825;53.200;6.448;2022-08-14T00:30:05;22.60;90.70
59041;DHT22;44825;53.200;6.448;2022-08-14T00:32:33;22.60;90.70
59041;DHT22;44825;53.200;6.448;2022-08-14T00:35:00;22.60;90.70
59041;DHT22;44825;53.200;6.448;2022-08-14T00:37:28;22.50;90.70
59041;DHT22;44825;53.200;6.448;2022-08-14T00:39:56;22.50;90.70
59041;DHT22;44825;53.200;6.448;2022-08-14T00:42:24;22.50;90.80
59041;DHT22;44825;53.200;6.448;2022-08-14T00:44:51;22.40;90.90
59041;DHT22;44825;53.200;6.448;2022-08-14T00:47:21;22.40;91.00
59041;DHT22;44825;53.200;6.448;2022-08-14T00:49:50;22.40;91.10
59041;DHT22;44825;53.200;6.448;2022-08-14T00:52:18;22.40;91.40
59041;DHT22;44825;53.200;6.448;2022-08-14T00:54:47;22.40;91.40
59041;DHT22;44825;53.200;6.448;2022-08-14T00:57:20;22.40;91.30
59041;DHT22;44825;53.200;6.448;2022-08-14T00:59:48;22.40;91.50
59041;DHT22;44825;53.200;6.448;2022-08-14T01:02:18;22.40;91.40
59041;DHT22;44825;53.200;6.448;2022-08-14T01:04:53;22.40;91.40
59041;DHT22;44825;53.200;6.448;2022-08-14T01:07:21;22.40;91.50
59041;DHT22;44825;53.200;6.448;2022-08-14T01:09:50;22.50;91.60
59041;DHT22;44825;53.200;6.448;2022-08-14T01:12:18;22.50;91.60
59041;DHT22;44825;53.200;6.448;2022-08-14T01:14:47;22.50;91.60
59041;DHT22;44825;53.200;6.448;2022-08-14T01:17:17;22.50;91.70
59041;DHT22;44825;53.200;6.448;2022-08-14T01:19:44;22.40;91.70
59041;DHT22;44825;53.200;6.448;2022-08-14T01:22:31;22.50;91.90
59041;DHT22;44825;53.200;6.448;2022-08-14T01:24:58;22.40;92.00
59041;DHT22;44825;53.200;6.448;2022-08-14T01:27:25;22.40;92.10
59041;DHT22;44825;53.200;6.448;2022-08-14T01:29:55;22.40;92.00
59041;DHT22;44825;53.200;6.448;2022-08-14T01:32:23;22.40;92.00
59041;DHT22;44825;53.200;6.448;2022-08-14T01:34:52;22.40;91.90
59041;DHT22;44825;53.200;6.448;2022-08-14T01:37:21;22.40;91.90
59041;DHT22;44825;53.200;6.448;2022-08-14T01:39:52;22.40;91.80
59041;DHT22;44825;53.200;6.448;2022-08-14T01:42:19;22.40;91.90
59041;DHT22;44825;53.200;6.448;2022-08-14T01:44:47;22.40;91.90
59041;DHT22;44825;53.200;6.448;2022-08-14T01:47:16;22.40;92.00
59041;DHT22;44825;53.200;6.448;2022-08-14T01:49:44;22.30;92.00
59041;DHT22;44825;53.200;6.448;2022-08-14T01:52:12;22.30;92.00
59041;DHT22;44825;53.200;6.448;2022-08-14T01:54:39;22.30;92.10
59041;DHT22;44825;53.200;6.448;2022-08-14T01:57:08;22.30;92.20
59041;DHT22;44825;53.200;6.448;2022-08-14T01:59:37;22.30;92.30
59041;DHT22;44825;53.200;6.448;2022-08-14T02:02:07;22.30;92.30
59041;DHT22;44825;53.200;6.448;2022-08-14T02:04:38;22.30;92.30
59041;DHT22;44825;53.200;6.448;2022-08-14T02:07:06;22.20;92.30
59041;DHT22;44825;53.200;6.448;2022-08-14T02:09:34;22.20;92.40
59041;DHT22;44825;53.200;6.448;2022-08-14T02:12:05;22.20;92.50
59041;DHT22;44825;53.200;6.448;2022-08-14T02:14:35;22.20;92.50
59041;DHT22;44825;53.200;6.448;2022-08-14T02:17:03;22.20;92.60
59041;DHT22;44825;53.200;6.448;2022-08-14T02:19:32;22.20;92.70
59041;DHT22;44825;53.200;6.448;2022-08-14T02:22:01;22.20;92.70
59041;DHT22;44825;53.200;6.448;2022-08-14T02:24:29;22.20;92.60
59041;DHT22;44825;53.200;6.448;2022-08-14T02:26:58;22.20;92.50
59041;DHT22;44825;53.200;6.448;2022-08-14T02:29:29;22.20;92.40
59041;DHT22;44825;53.200;6.448;2022-08-14T02:31:59;22.20;92.50
59041;DHT22;44825;53.200;6.448;2022-08-14T02:34:28;22.20;92.70
59041;DHT22;44825;53.200;6.448;2022-08-14T02:37:00;22.20;92.80
59041;DHT22;44825;53.200;6.448;2022-08-14T02:39:28;22.20;92.80
59041;DHT22;44825;53.200;6.448;2022-08-14T02:41:56;22.20;92.80
59041;DHT22;44825;53.200;6.448;2022-08-14T02:44:24;22.20;92.90
59041;DHT22;44825;53.200;6.448;2022-08-14T02:46:53;22.20;93.00
59041;DHT22;44825;53.200;6.448;2022-08-14T02:49:22;22.20;93.00
59041;DHT22;44825;53.200;6.448;2022-08-14T02:51:54;22.20;93.00
59041;DHT22;44825;53.200;6.448;2022-08-14T02:54:22;22.20;93.00
59041;DHT22;44825;53.200;6.448;2022-08-14T02:56:52;22.10;93.00
59041;DHT22;44825;53.200;6.448;2022-08-14T02:59:22;22.10;93.10
59041;DHT22;44825;53.200;6.448;2022-08-14T03:01:53;22.00;93.20
59041;DHT22;44825;53.200;6.448;2022-08-14T03:04:24;22.00;93.30
59041;DHT22;44825;53.200;6.448;2022-08-14T03:06:54;22.00;93.30
59041;DHT22;44825;53.200;6.448;2022-08-14T03:09:22;22.00;93.30
59041;DHT22;44825;53.200;6.448;2022-08-14T03:11:49;22.00;93.30
59041;DHT22;44825;53.200;6.448;2022-08-14T03:14:17;22.00;93.30
59041;DHT22;44825;53.200;6.448;2022-08-14T03:16:46;22.00;93.30
59041;DHT22;44825;53.200;6.448;2022-08-14T03:19:15;22.00;93.20
59041;DHT22;44825;53.200;6.448;2022-08-14T03:21:44;22.00;93.50
59041;DHT22;44825;53.200;6.448;2022-08-14T03:24:12;21.90;93.20
59041;DHT22;44825;53.200;6.448;2022-08-14T03:26:41;21.90;93.20
59041;DHT22;44825;53.200;6.448;2022-08-14T03:29:11;21.90;93.30
59041;DHT22;44825;53.200;6.448;2022-08-14T03:31:39;21.90;93.30
59041;DHT22;44825;53.200;6.448;2022-08-14T03:34:07;21.90;93.30
59041;DHT22;44825;53.200;6.448;2022-08-14T03:36:35;22.00;93.30
59041;DHT22;44825;53.200;6.448;2022-08-14T03:39:06;22.00;93.20
59041;DHT22;44825;53.200;6.448;2022-08-14T03:41:34;22.00;93.20
59041;DHT22;44825;53.200;6.448;2022-08-14T03:44:04;22.00;93.20
59041;DHT22;44825;53.200;6.448;2022-08-14T03:46:33;22.00;93.10
59041;DHT22;44825;53.200;6.448;2022-08-14T03:49:02;22.00;93.00
59041;DHT22;44825;53.200;6.448;2022-08-14T03:51:32;22.00;93.00
59041;DHT22;44825;53.200;6.448;2022-08-14T03:54:02;22.00;93.10
59041;DHT22;44825;53.200;6.448;2022-08-14T03:56:31;22.00;93.20
59041;DHT22;44825;53.200;6.448;2022-08-14T03:59:00;21.90;93.30
59041;DHT22;44825;53.200;6.448;2022-08-14T04:01:33;21.90;93.40
59041;DHT22;44825;53.200;6.448;2022-08-14T04:04:01;21.80;93.50
59041;DHT22;44825;53.200;6.448;2022-08-14T04:06:31;21.80;93.80
59041;DHT22;44825;53.200;6.448;2022-08-14T04:08:58;21.70;94.00
59041;DHT22;44825;53.200;6.448;2022-08-14T04:11:26;21.70;94.00
59041;DHT22;44825;53.200;6.448;2022-08-14T04:13:55;21.60;94.00
59041;DHT22;44825;53.200;6.448;2022-08-14T04:16:23;21.60;94.10
59041;DHT22;44825;53.200;6.448;2022-08-14T04:18:52;21.60;94.20
59041;DHT22;44825;53.200;6.448;2022-08-14T04:21:21;21.60;94.30
59041;DHT22;44825;53.200;6.448;2022-08-14T04:23:50;21.50;94.30
59041;DHT22;44825;53.200;6.448;2022-08-14T04:26:18;21.50;94.40
59041;DHT22;44825;53.200;6.448;2022-08-14T04:28:48;21.50;94.50
59041;DHT22;44825;53.200;6.448;2022-08-14T04:31:18;21.40;94.60
59041;DHT22;44825;53.200;6.448;2022-08-14T04:33:45;21.40;94.70
59041;DHT22;44825;53.200;6.448;2022-08-14T04:36:13;21.40;94.80
59041;DHT22;44825;53.200;6.448;2022-08-14T04:38:40;21.30;94.90
59041;DHT22;44825;53.200;6.448;2022-08-14T04:41:25;21.30;94.90
59041;DHT22;44825;53.200;6.448;2022-08-14T04:44:12;21.20;95.00
59041;DHT22;44825;53.200;6.448;2022-08-14T04:46:42;21.30;95.10
59041;DHT22;44825;53.200;6.448;2022-08-14T04:49:32;21.30;95.20
59041;DHT22;44825;53.200;6.448;2022-08-14T04:51:58;21.30;95.20
59041;DHT22;44825;53.200;6.448;2022-08-14T04:54:29;21.40;95.30
59041;DHT22;44825;53.200;6.448;2022-08-14T04:56:56;21.40;95.30
59041;DHT22;44825;53.200;6.448;2022-08-14T04:59:24;21.40;95.30
59041;DHT22;44825;53.200;6.448;2022-08-14T05:01:53;21.50;95.40
59041;DHT22;44825;53.200;6.448;2022-08-14T05:04:21;21.60;95.40
59041;DHT22;44825;53.200;6.448;2022-08-14T05:06:50;21.60;95.20
59041;DHT22;44825;53.200;6.448;2022-08-14T05:09:18;21.60;95.30
59041;DHT22;44825;53.200;6.448;2022-08-14T05:11:45;21.70;95.40
59041;DHT22;44825;53.200;6.448;2022-08-14T05:14:14;21.80;95.50
59041;DHT22;44825;53.200;6.448;2022-08-14T05:16:43;21.80;95.40
59041;DHT22;44825;53.200;6.448;2022-08-14T05:19:12;21.90;95.20
59041;DHT22;44825;53.200;6.448;2022-08-14T05:21:40;22.00;95.10
59041;DHT22;44825;53.200;6.448;2022-08-14T05:24:07;22.10;95.00
59041;DHT22;44825;53.200;6.448;2022-08-14T05:26:38;22.20;95.00
59041;DHT22;44825;53.200;6.448;2022-08-14T05:29:07;22.30;95.10
59041;DHT22;44825;53.200;6.448;2022-08-14T05:31:35;22.30;95.20
59041;DHT22;44825;53.200;6.448;2022-08-14T05:34:05;22.40;95.20
59041;DHT22;44825;53.200;6.448;2022-08-14T05:36:34;22.50;95.30
59041;DHT22;44825;53.200;6.448;2022-08-14T05:39:01;22.60;95.20
59041;DHT22;44825;53.200;6.448;2022-08-14T05:41:28;22.70;95.10
59041;DHT22;44825;53.200;6.448;2022-08-14T05:43:58;22.80;95.10
59041;DHT22;44825;53.200;6.448;2022-08-14T05:46:25;22.90;95.00
59041;DHT22;44825;53.200;6.448;2022-08-14T05:48:54;23.00;94.90
59041;DHT22;44825;53.200;6.448;2022-08-14T05:51:23;23.10;94.50
59041;DHT22;44825;53.200;6.448;2022-08-14T05:53:52;23.20;94.30
59041;DHT22;44825;53.200;6.448;2022-08-14T05:56:19;23.30;94.30
59041;DHT22;44825;53.200;6.448;2022-08-14T05:58:49;23.40;94.20
59041;DHT22;44825;53.200;6.448;2022-08-14T06:01:16;23.50;94.10
59041;DHT22;44825;53.200;6.448;2022-08-14T06:03:44;23.60;94.20
59041;DHT22;44825;53.200;6.448;2022-08-14T06:06:11;23.60;94.00
59041;DHT22;44825;53.200;6.448;2022-08-14T06:08:38;23.70;93.80
59041;DHT22;44825;53.200;6.448;2022-08-14T06:11:07;23.80;93.50
59041;DHT22;44825;53.200;6.448;2022-08-14T06:13:37;23.90;93.30
59041;DHT22;44825;53.200;6.448;2022-08-14T06:16:05;24.00;93.40
59041;DHT22;44825;53.200;6.448;2022-08-14T06:18:33;24.00;93.10
59041;DHT22;44825;53.200;6.448;2022-08-14T06:21:01;24.10;93.00
59041;DHT22;44825;53.200;6.448;2022-08-14T06:23:28;24.20;92.80
59041;DHT22;44825;53.200;6.448;2022-08-14T06:25:56;24.20;92.60
59041;DHT22;44825;53.200;6.448;2022-08-14T06:28:26;24.20;92.30
59041;DHT22;44825;53.200;6.448;2022-08-14T06:30:53;24.20;92.10
59041;DHT22;44825;53.200;6.448;2022-08-14T06:33:21;24.30;92.00
59041;DHT22;44825;53.200;6.448;2022-08-14T06:35:49;24.40;91.80
59041;DHT22;44825;53.200;6.448;2022-08-14T06:38:18;24.40;91.80
59041;DHT22;44825;53.200;6.448;2022-08-14T06:40:47;24.40;91.90
59041;DHT22;44825;53.200;6.448;2022-08-14T06:43:15;24.40;92.20
59041;DHT22;44825;53.200;6.448;2022-08-14T06:45:46;24.40;92.30
59041;DHT22;44825;53.200;6.448;2022-08-14T06:48:14;24.40;92.20
59041;DHT22;44825;53.200;6.448;2022-08-14T06:50:42;24.40;92.30
59041;DHT22;44825;53.200;6.448;2022-08-14T06:53:09;24.50;92.40
59041;DHT22;44825;53.200;6.448;2022-08-14T06:55:39;24.50;92.40
59041;DHT22;44825;53.200;6.448;2022-08-14T06:58:10;24.60;92.20
59041;DHT22;44825;53.200;6.448;2022-08-14T07:00:38;24.70;92.20
59041;DHT22;44825;53.200;6.448;2022-08-14T07:03:07;24.60;92.10
59041;DHT22;44825;53.200;6.448;2022-08-14T07:05:52;24.70;91.80
59041;DHT22;44825;53.200;6.448;2022-08-14T07:08:20;24.70;91.90
59041;DHT22;44825;53.200;6.448;2022-08-14T07:10:52;24.70;91.90
59041;DHT22;44825;53.200;6.448;2022-08-14T07:13:21;24.70;91.50
59041;DHT22;44825;53.200;6.448;2022-08-14T07:15:51;24.80;91.30
59041;DHT22;44825;53.200;6.448;2022-08-14T07:18:21;24.80;91.40
59041;DHT22;44825;53.200;6.448;2022-08-14T07:20:49;24.80;91.30
59041;DHT22;44825;53.200;6.448;2022-08-14T07:23:18;24.90;91.20
59041;DHT22;44825;53.200;6.448;2022-08-14T07:25:47;24.90;91.20
59041;DHT22;44825;53.200;6.448;2022-08-14T07:28:16;25.00;91.30
59041;DHT22;44825;53.200;6.448;2022-08-14T07:30:44;25.00;90.90
59041;DHT22;44825;53.200;6.448;2022-08-14T07:33:12;25.10;90.90
59041;DHT22;44825;53.200;6.448;2022-08-14T07:35:40;25.10;90.90
59041;DHT22;44825;53.200;6.448;2022-08-14T07:38:16;25.10;90.80
59041;DHT22;44825;53.200;6.448;2022-08-14T07:40:43;25.20;91.10
59041;DHT22;44825;53.200;6.448;2022-08-14T07:43:10;25.20;90.90
59041;DHT22;44825;53.200;6.448;2022-08-14T07:45:38;25.40;90.90
59041;DHT22;44825;53.200;6.448;2022-08-14T07:48:06;25.40;90.60
59041;DHT22;44825;53.200;6.448;2022-08-14T07:50:33;25.40;90.70
59041;DHT22;44825;53.200;6.448;2022-08-14T07:53:02;25.40;90.50
59041;DHT22;44825;53.200;6.448;2022-08-14T07:55:32;25.50;90.50
59041;DHT22;44825;53.200;6.448;2022-08-14T07:57:59;25.50;90.30
59041;DHT22;44825;53.200;6.448;2022-08-14T08:00:26;25.50;90.30
59041;DHT22;44825;53.200;6.448;2022-08-14T08:02:55;25.50;90.40
59041;DHT22;44825;53.200;6.448;2022-08-14T08:05:25;25.60;90.30
59041;DHT22;44825;53.200;6.448;2022-08-14T08:07:53;25.60;90.10
59041;DHT22;44825;53.200;6.448;2022-08-14T08:10:23;25.60;90.10
59041;DHT22;44825;53.200;6.448;2022-08-14T08:13:03;25.70;89.80
59041;DHT22;44825;53.200;6.448;2022-08-14T08:15:33;25.70;90.00
59041;DHT22;44825;53.200;6.448;2022-08-14T08:18:01;25.80;89.10
59041;DHT22;44825;53.200;6.448;2022-08-14T08:20:31;25.80;88.90
59041;DHT22;44825;53.200;6.448;2022-08-14T08:22:59;25.80;88.30
59041;DHT22;44825;53.200;6.448;2022-08-14T08:25:30;25.90;88.90
59041;DHT22;44825;53.200;6.448;2022-08-14T08:27:59;26.00;88.50
59041;DHT22;44825;53.200;6.448;2022-08-14T08:30:28;26.10;88.40
59041;DHT22;44825;53.200;6.448;2022-08-14T08:32:57;26.10;87.30
59041;DHT22;44825;53.200;6.448;2022-08-14T08:35:28;26.20;87.70
59041;DHT22;44825;53.200;6.448;2022-08-14T08:38:01;26.20;87.60
59041;DHT22;44825;53.200;6.448;2022-08-14T08:40:31;26.30;87.10
59041;DHT22;44825;53.200;6.448;2022-08-14T08:43:02;26.40;87.10
59041;DHT22;44825;53.200;6.448;2022-08-14T08:45:33;26.40;87.30
59041;DHT22;44825;53.200;6.448;2022-08-14T08:48:01;26.50;86.70
59041;DHT22;44825;53.200;6.448;2022-08-14T08:50:30;26.60;85.90
59041;DHT22;44825;53.200;6.448;2022-08-14T08:53:00;26.60;86.00
59041;DHT22;44825;53.200;6.448;2022-08-14T08:55:31;26.60;85.70
59041;DHT22;44825;53.200;6.448;2022-08-14T08:58:01;26.70;85.60
59041;DHT22;44825;53.200;6.448;2022-08-14T09:00:31;26.80;84.50
59041;DHT22;44825;53.200;6.448;2022-08-14T09:03:02;26.90;83.90
59041;DHT22;44825;53.200;6.448;2022-08-14T09:05:31;27.00;83.30
59041;DHT22;44825;53.200;6.448;2022-08-14T09:08:09;27.10;81.50
59041;DHT22;44825;53.200;6.448;2022-08-14T09:10:38;27.30;80.40
59041;DHT22;44825;53.200;6.448;2022-08-14T09:13:06;27.40;79.70
59041;DHT22;44825;53.200;6.448;2022-08-14T09:15:33;27.50;79.10
59041;DHT22;44825;53.200;6.448;2022-08-14T09:18:00;27.60;78.70
59041;DHT22;44825;53.200;6.448;2022-08-14T09:20:28;27.60;78.90
59041;DHT22;44825;53.200;6.448;2022-08-14T09:22:57;27.70;78.20
59041;DHT22;44825;53.200;6.448;2022-08-14T09:25:24;27.70;78.00
59041;DHT22;44825;53.200;6.448;2022-08-14T09:27:54;27.80;78.40
59041;DHT22;44825;53.200;6.448;2022-08-14T09:30:21;27.80;77.50
59041;DHT22;44825;53.200;6.448;2022-08-14T09:33:00;27.90;78.20
59041;DHT22;44825;53.200;6.448;2022-08-14T09:35:40;27.90;77.20
59041;DHT22;44825;53.200;6.448;2022-08-14T09:38:17;28.00;76.10
59041;DHT22;44825;53.200;6.448;2022-08-14T09:40:58;28.10;75.60
59041;DHT22;44825;53.200;6.448;2022-08-14T09:43:32;28.10;75.20
59041;DHT22;44825;53.200;6.448;2022-08-14T09:46:06;28.20;74.90
59041;DHT22;44825;53.200;6.448;2022-08-14T09:48:34;28.30;75.40
59041;DHT22;44825;53.200;6.448;2022-08-14T09:51:03;28.30;75.20
59041;DHT22;44825;53.200;6.448;2022-08-14T09:53:38;28.40;74.90
59041;DHT22;44825;53.200;6.448;2022-08-14T09:56:09;28.50;74.10
59041;DHT22;44825;53.200;6.448;2022-08-14T09:58:39;28.50;73.80
59041;DHT22;44825;53.200;6.448;2022-08-14T10:01:10;28.50;73.80
59041;DHT22;44825;53.200;6.448;2022-08-14T10:03:47;28.60;73.60
59041;DHT22;44825;53.200;6.448;2022-08-14T10:06:16;28.60;72.20
59041;DHT22;44825;53.200;6.448;2022-08-14T10:08:46;28.70;71.60
59041;DHT22;44825;53.200;6.448;2022-08-14T10:11:17;28.70;70.90
59041;DHT22;44825;53.200;6.448;2022-08-14T10:13:47;28.80;71.60
59041;DHT22;44825;53.200;6.448;2022-08-14T10:16:18;28.80;72.20
59041;DHT22;44825;53.200;6.448;2022-08-14T10:18:48;28.80;71.80
59041;DHT22;44825;53.200;6.448;2022-08-14T10:21:17;28.90;70.90
59041;DHT22;44825;53.200;6.448;2022-08-14T10:23:46;28.90;71.60
59041;DHT22;44825;53.200;6.448;2022-08-14T10:26:17;28.90;71.40
59041;DHT22;44825;53.200;6.448;2022-08-14T10:28:47;29.00;70.20
59041;DHT22;44825;53.200;6.448;2022-08-14T10:31:22;29.00;70.40
59041;DHT22;44825;53.200;6.448;2022-08-14T10:33:58;29.00;70.40
59041;DHT22;44825;53.200;6.448;2022-08-14T10:36:27;29.00;70.60
59041;DHT22;44825;53.200;6.448;2022-08-14T10:38:57;29.00;71.20
59041;DHT22;44825;53.200;6.448;2022-08-14T10:41:34;29.00;70.70
59041;DHT22;44825;53.200;6.448;2022-08-14T10:44:09;29.00;69.30
59041;DHT22;44825;53.200;6.448;2022-08-14T10:46:42;29.00;69.40
59041;DHT22;44825;53.200;6.448;2022-08-14T10:49:18;29.00;70.10
59041;DHT22;44825;53.200;6.448;2022-08-14T10:51:57;29.00;69.00
59041;DHT22;44825;53.200;6.448;2022-08-14T10:54:32;29.10;69.60
59041;DHT22;44825;53.200;6.448;2022-08-14T10:57:16;29.10;68.00
59041;DHT22;44825;53.200;6.448;2022-08-14T10:59:48;29.10;67.50
59041;DHT22;44825;53.200;6.448;2022-08-14T11:02:18;29.20;68.30
59041;DHT22;44825;53.200;6.448;2022-08-14T11:04:57;29.20;67.70
59041;DHT22;44825;53.200;6.448;2022-08-14T11:07:25;29.20;67.70
59041;DHT22;44825;53.200;6.448;2022-08-14T11:09:53;29.20;67.40
59041;DHT22;44825;53.200;6.448;2022-08-14T11:12:21;29.20;66.00
59041;DHT22;44825;53.200;6.448;2022-08-14T11:14:55;29.20;66.50
59041;DHT22;44825;53.200;6.448;2022-08-14T11:17:25;29.20;66.20
59041;DHT22;44825;53.200;6.448;2022-08-14T11:19:57;29.20;66.40
59041;DHT22;44825;53.200;6.448;2022-08-14T11:22:27;29.20;65.50
59041;DHT22;44825;53.200;6.448;2022-08-14T11:24:58;29.20;65.80
59041;DHT22;44825;53.200;6.448;2022-08-14T11:27:28;29.10;65.40
59041;DHT22;44825;53.200;6.448;2022-08-14T11:30:00;29.20;65.70
59041;DHT22;44825;53.200;6.448;2022-08-14T11:32:28;29.20;66.30
59041;DHT22;44825;53.200;6.448;2022-08-14T11:34:56;29.20;65.80
59041;DHT22;44825;53.200;6.448;2022-08-14T11:37:23;29.20;65.40
59041;DHT22;44825;53.200;6.448;2022-08-14T11:39:51;29.20;64.60
59041;DHT22;44825;53.200;6.448;2022-08-14T11:42:19;29.20;64.90
59041;DHT22;44825;53.200;6.448;2022-08-14T11:44:49;29.20;65.20
59041;DHT22;44825;53.200;6.448;2022-08-14T11:47:19;29.20;66.10
59041;DHT22;44825;53.200;6.448;2022-08-14T11:49:47;29.20;65.90
59041;DHT22;44825;53.200;6.448;2022-08-14T11:52:15;29.10;65.80
59041;DHT22;44825;53.200;6.448;2022-08-14T11:54:44;29.20;65.40
59041;DHT22;44825;53.200;6.448;2022-08-14T11:57:22;29.20;64.20
59041;DHT22;44825;53.200;6.448;2022-08-14T11:59:59;29.20;65.30
59041;DHT22;44825;53.200;6.448;2022-08-14T12:02:28;29.10;64.50
59041;DHT22;44825;53.200;6.448;2022-08-14T12:04:55;29.20;64.40
59041;DHT22;44825;53.200;6.448;2022-08-14T12:07:23;29.10;64.90
59041;DHT22;44825;53.200;6.448;2022-08-14T12:09:52;29.10;65.20
59041;DHT22;44825;53.200;6.448;2022-08-14T12:12:23;29.20;64.80
59041;DHT22;44825;53.200;6.448;2022-08-14T12:14:52;29.20;64.90
59041;DHT22;44825;53.200;6.448;2022-08-14T12:17:22;29.20;65.40
59041;DHT22;44825;53.200;6.448;2022-08-14T12:19:52;29.20;64.80
59041;DHT22;44825;53.200;6.448;2022-08-14T12:22:32;29.30;64.40
59041;DHT22;44825;53.200;6.448;2022-08-14T12:25:00;29.20;65.00
59041;DHT22;44825;53.200;6.448;2022-08-14T12:27:38;29.20;63.90
59041;DHT22;44825;53.200;6.448;2022-08-14T12:30:07;29.20;64.10
59041;DHT22;44825;53.200;6.448;2022-08-14T12:32:38;29.20;64.80
59041;DHT22;44825;53.200;6.448;2022-08-14T12:35:09;29.20;64.80
59041;DHT22;44825;53.200;6.448;2022-08-14T12:37:36;29.20;65.10
59041;DHT22;44825;53.200;6.448;2022-08-14T12:40:11;29.20;63.50
59041;DHT22;44825;53.200;6.448;2022-08-14T12:42:39;29.30;63.20
59041;DHT22;44825;53.200;6.448;2022-08-14T12:45:07;29.20;62.60
59041;DHT22;44825;53.200;6.448;2022-08-14T12:47:38;29.20;63.00
59041;DHT22;44825;53.200;6.448;2022-08-14T12:50:08;29.20;63.50
59041;DHT22;44825;53.200;6.448;2022-08-14T12:52:37;29.20;63.10
59041;DHT22;44825;53.200;6.448;2022-08-14T12:55:07;29.20;63.00
59041;DHT22;44825;53.200;6.448;2022-08-14T12:57:37;29.20;63.20
59041;DHT22;44825;53.200;6.448;2022-08-14T13:00:09;29.10;62.60
59041;DHT22;44825;53.200;6.448;2022-08-14T13:02:39;29.00;63.00
59041;DHT22;44825;53.200;6.448;2022-08-14T13:05:10;28.90;64.30
59041;DHT22;44825;53.200;6.448;2022-08-14T13:07:40;29.00;63.90
59041;DHT22;44825;53.200;6.448;2022-08-14T13:10:09;29.00;63.50
59041;DHT22;44825;53.200;6.448;2022-08-14T13:12:40;28.90;62.70
59041;DHT22;44825;53.200;6.448;2022-08-14T13:15:09;28.90;63.10
59041;DHT22;44825;53.200;6.448;2022-08-14T13:17:40;28.90;63.70
59041;DHT22;44825;53.200;6.448;2022-08-14T13:20:11;29.00;63.00
59041;DHT22;44825;53.200;6.448;2022-08-14T13:22:40;29.00;63.30
59041;DHT22;44825;53.200;6.448;2022-08-14T13:25:11;29.00;63.80
59041;DHT22;44825;53.200;6.448;2022-08-14T13:27:39;28.90;63.80
59041;DHT22;44825;53.200;6.448;2022-08-14T13:30:10;28.90;63.40
59041;DHT22;44825;53.200;6.448;2022-08-14T13:32:38;28.80;62.90
59041;DHT22;44825;53.200;6.448;2022-08-14T13:35:10;28.90;62.40
59041;DHT22;44825;53.200;6.448;2022-08-14T13:37:40;28.90;61.80
59041;DHT22;44825;53.200;6.448;2022-08-14T13:40:10;28.90;62.70
59041;DHT22;44825;53.200;6.448;2022-08-14T13:42:41;28.90;63.10
59041;DHT22;44825;53.200;6.448;2022-08-14T13:45:11;29.00;62.90
59041;DHT22;44825;53.200;6.448;2022-08-14T13:47:40;28.90;62.60
59041;DHT22;44825;53.200;6.448;2022-08-14T13:50:12;28.90;62.20
59041;DHT22;44825;53.200;6.448;2022-08-14T13:52:42;28.90;62.70
59041;DHT22;44825;53.200;6.448;2022-08-14T13:55:10;28.90;62.20
59041;DHT22;44825;53.200;6.448;2022-08-14T13:57:41;28.90;62.30
59041;DHT22;44825;53.200;6.448;2022-08-14T14:00:11;28.90;61.70
59041;DHT22;44825;53.200;6.448;2022-08-14T14:02:40;28.90;62.90
59041;DHT22;44825;53.200;6.448;2022-08-14T14:05:12;28.90;63.30
59041;DHT22;44825;53.200;6.448;2022-08-14T14:07:44;28.80;63.70
59041;DHT22;44825;53.200;6.448;2022-08-14T14:10:13;28.70;64.40
59041;DHT22;44825;53.200;6.448;2022-08-14T14:12:42;28.60;64.20
59041;DHT22;44825;53.200;6.448;2022-08-14T14:15:12;28.60;63.40
59041;DHT22;44825;53.200;6.448;2022-08-14T14:17:41;28.50;64.80
59041;DHT22;44825;53.200;6.448;2022-08-14T14:20:12;28.50;64.10
59041;DHT22;44825;53.200;6.448;2022-08-14T14:22:40;28.50;63.90
59041;DHT22;44825;53.200;6.448;2022-08-14T14:25:08;28.40;63.80
59041;DHT22;44825;53.200;6.448;2022-08-14T14:27:36;28.40;64.80
59041;DHT22;44825;53.200;6.448;2022-08-14T14:30:08;28.40;64.50
59041;DHT22;44825;53.200;6.448;2022-08-14T14:32:37;28.40;64.10
59041;DHT22;44825;53.200;6.448;2022-08-14T14:35:09;28.40;64.40
59041;DHT22;44825;53.200;6.448;2022-08-14T14:37:39;28.40;64.20
59041;DHT22;44825;53.200;6.448;2022-08-14T14:40:08;28.40;63.80
59041;DHT22;44825;53.200;6.448;2022-08-14T14:42:43;28.40;63.50
59041;DHT22;44825;53.200;6.448;2022-08-14T14:45:16;28.40;63.70
59041;DHT22;44825;53.200;6.448;2022-08-14T14:47:46;28.40;64.00
59041;DHT22;44825;53.200;6.448;2022-08-14T14:50:17;28.50;62.80
59041;DHT22;44825;53.200;6.448;2022-08-14T14:52:47;28.50;62.80
59041;DHT22;44825;53.200;6.448;2022-08-14T14:55:17;28.50;63.40
59041;DHT22;44825;53.200;6.448;2022-08-14T14:57:45;28.50;64.00
59041;DHT22;44825;53.200;6.448;2022-08-14T15:00:15;28.50;63.20
59041;DHT22;44825;53.200;6.448;2022-08-14T15:02:44;28.40;62.90
59041;DHT22;44825;53.200;6.448;2022-08-14T15:05:13;28.50;63.30
59041;DHT22;44825;53.200;6.448;2022-08-14T15:07:41;28.40;63.80
59041;DHT22;44825;53.200;6.448;2022-08-14T15:10:12;28.40;64.30
59041;DHT22;44825;53.200;6.448;2022-08-14T15:12:40;28.40;65.20
59041;DHT22;44825;53.200;6.448;2022-08-14T15:15:09;28.30;65.70
59041;DHT22;44825;53.200;6.448;2022-08-14T15:17:37;28.30;64.50
59041;DHT22;44825;53.200;6.448;2022-08-14T15:20:07;28.30;64.20
59041;DHT22;44825;53.200;6.448;2022-08-14T15:22:36;28.30;64.70
59041;DHT22;44825;53.200;6.448;2022-08-14T15:25:05;28.30;65.70
59041;DHT22;44825;53.200;6.448;2022-08-14T15:27:34;28.20;66.10
59041;DHT22;44825;53.200;6.448;2022-08-14T15:30:03;28.20;66.60
59041;DHT22;44825;53.200;6.448;2022-08-14T15:32:31;28.10;67.00
59041;DHT22;44825;53.200;6.448;2022-08-14T15:34:59;28.10;67.20
59041;DHT22;44825;53.200;6.448;2022-08-14T15:37:27;28.10;66.60
59041;DHT22;44825;53.200;6.448;2022-08-14T15:39:55;28.10;65.50
59041;DHT22;44825;53.200;6.448;2022-08-14T15:42:23;28.00;65.90
59041;DHT22;44825;53.200;6.448;2022-08-14T15:44:52;28.00;66.60